Time;durP1;ratioP1;P1;durP2;ratioP2;P2;SDS_P1;SDS_P2;PMS_P1;PMS_P2;Temp;Humidity;BMP_temperature;BMP_pressure;BME280_temperature;BME280_humidity;BME280_pressure;Samples;Min_cycle;Max_cycle;Signal;HPM_P1;HPM_P2
2023/03/03 00:02:18;;;;;;;43.72;25.65;;;;;;;;;;5080141;28;20029;-92
2023/03/03 00:07:48;;;;;;;45.35;27.35;;;;;;;;;;5079965;28;20019;-92
2023/03/03 00:10:14;;;;;;;40.60;25.85;;;;;;;;;;5062113;28;20027;-91
2023/03/03 00:12:46;;;;;;;46.30;26.52;;;;;;;;;;5061690;28;20044;-92
2023/03/03 00:15:20;;;;;;;42.60;24.77;;;;;;;;;;5058722;28;20115;-90
2023/03/03 00:17:46;;;;;;;44.90;25.63;;;;;;;;;;5077575;28;20033;-90
2023/03/03 00:20:45;;;;;;;43.33;25.70;;;;;;;;;;5079789;28;20025;-90
2023/03/03 00:23:11;;;;;;;50.78;26.95;;;;;;;;;;4998745;28;20126;-91
2023/03/03 00:25:37;;;;;;;48.53;27.50;;;;;;;;;;4998311;28;20489;-91
2023/03/03 00:28:26;;;;;;;49.83;29.73;;;;;;;;;;4998300;28;20435;-91
2023/03/03 00:30:53;;;;;;;52.08;30.70;;;;;;;;;;4959515;29;20054;-91
2023/03/03 00:33:19;;;;;;;44.60;27.90;;;;;;;;;;4959691;29;20078;-92
2023/03/03 00:35:45;;;;;;;47.25;27.67;;;;;;;;;;4959732;29;20039;-92
2023/03/03 00:38:17;;;;;;;44.40;25.80;;;;;;;;;;4959352;29;20038;-91
2023/03/03 00:40:43;;;;;;;44.65;24.67;;;;;;;;;;4956287;29;20020;-92
2023/03/03 00:43:21;;;;;;;46.40;25.77;;;;;;;;;;4940295;29;20043;-90
2023/03/03 00:45:51;;;;;;;42.85;25.25;;;;;;;;;;4940022;29;20061;-90
2023/03/03 00:48:23;;;;;;;42.22;24.75;;;;;;;;;;4940305;29;20040;-91
2023/03/03 00:50:49;;;;;;;42.72;26.05;;;;;;;;;;4940228;29;20031;-91
2023/03/03 00:53:17;;;;;;;48.38;26.65;;;;;;;;;;4939850;29;20042;-90
2023/03/03 00:55:43;;;;;;;47.55;27.38;;;;;;;;;;4939840;29;20434;-89
2023/03/03 00:58:09;;;;;;;44.65;26.40;;;;;;;;;;4958336;28;20050;-90
2023/03/03 01:00:36;;;;;;;45.70;26.45;;;;;;;;;;4994505;28;20035;-91
2023/03/03 01:03:07;;;;;;;43.88;24.88;;;;;;;;;;4989769;28;20036;-90
2023/03/03 01:08:36;;;;;;;39.78;23.10;;;;;;;;;;5080803;28;20104;-88
2023/03/03 01:11:28;;;;;;;37.25;22.58;;;;;;;;;;5081067;28;20028;-88
2023/03/03 01:13:54;;;;;;;37.97;23.13;;;;;;;;;;5095360;28;20539;-88
2023/03/03 01:16:21;;;;;;;41.70;24.90;;;;;;;;;;5097844;28;20050;-89
2023/03/03 01:18:47;;;;;;;43.50;26.50;;;;;;;;;;5098581;28;20036;-90
2023/03/03 01:24:16;;;;;;;41.50;25.10;;;;;;;;;;5084488;28;20027;-91
2023/03/03 01:26:42;;;;;;;41.45;24.60;;;;;;;;;;5098358;28;20051;-90
2023/03/03 01:29:08;;;;;;;37.72;22.70;;;;;;;;;;5098549;28;20032;-91
2023/03/03 01:31:35;;;;;;;38.72;23.75;;;;;;;;;;5080484;28;20043;-89
2023/03/03 01:34:01;;;;;;;40.50;23.10;;;;;;;;;;5080205;28;20032;-91
2023/03/03 01:39:31;;;;;;;38.50;23.05;;;;;;;;;;5098457;28;20043;-91
2023/03/03 01:41:57;;;;;;;34.75;21.33;;;;;;;;;;5097982;28;20031;-91
2023/03/03 01:44:23;;;;;;;38.75;23.35;;;;;;;;;;5098501;28;20050;-90
2023/03/03 01:46:52;;;;;;;44.42;23.98;;;;;;;;;;5097914;28;20016;-92
2023/03/03 01:49:22;;;;;;;40.70;24.10;;;;;;;;;;5098118;28;20036;-91
2023/03/03 01:54:53;;;;;;;38.88;23.17;;;;;;;;;;5098371;28;20420;-91
2023/03/03 01:57:23;;;;;;;41.55;22.98;;;;;;;;;;5097446;28;20039;-91
2023/03/03 01:59:50;;;;;;;48.50;25.08;;;;;;;;;;5080038;28;20071;-90
2023/03/03 02:02:16;;;;;;;43.58;24.23;;;;;;;;;;5098208;28;20027;-90
2023/03/03 02:04:43;;;;;;;41.70;24.48;;;;;;;;;;5097631;28;20032;-90
2023/03/03 02:07:10;;;;;;;41.17;23.45;;;;;;;;;;5080064;28;20413;-90
2023/03/03 02:09:54;;;;;;;41.10;22.52;;;;;;;;;;5097825;28;20418;-90
2023/03/03 02:12:23;;;;;;;38.38;22.52;;;;;;;;;;5098084;28;20031;-90
2023/03/03 02:14:49;;;;;;;41.20;23.23;;;;;;;;;;5097717;28;20066;-89
2023/03/03 02:17:15;;;;;;;42.65;23.38;;;;;;;;;;5079919;28;20024;-89
2023/03/03 02:23:12;;;;;;;40.13;23.10;;;;;;;;;;5097926;28;20055;-89
2023/03/03 02:25:38;;;;;;;40.40;22.45;;;;;;;;;;4996447;28;20034;-89
2023/03/03 02:28:04;;;;;;;39.75;22.60;;;;;;;;;;4998899;28;20034;-89
2023/03/03 02:30:30;;;;;;;36.30;22.60;;;;;;;;;;5000855;28;20077;-89
2023/03/03 02:32:56;;;;;;;39.38;22.77;;;;;;;;;;5000643;28;20022;-90
2023/03/03 02:35:27;;;;;;;37.60;21.80;;;;;;;;;;5000671;28;20038;-89
2023/03/03 02:37:55;;;;;;;39.70;22.27;;;;;;;;;;4982473;28;20063;-89
2023/03/03 02:40:23;;;;;;;42.20;21.77;;;;;;;;;;4984070;28;20022;-89
2023/03/03 02:42:52;;;;;;;42.80;23.08;;;;;;;;;;5019253;28;20038;-88
2023/03/03 02:45:18;;;;;;;43.20;24.45;;;;;;;;;;5019748;28;20404;-88
2023/03/03 02:47:49;;;;;;;40.75;24.65;;;;;;;;;;5020023;28;20423;-89
2023/03/03 02:50:15;;;;;;;40.38;23.30;;;;;;;;;;5019861;28;20367;-89
2023/03/03 02:52:42;;;;;;;37.92;22.80;;;;;;;;;;5019846;28;20375;-90
2023/03/03 02:55:08;;;;;;;39.63;23.75;;;;;;;;;;5019625;28;20293;-90
2023/03/03 02:57:34;;;;;;;38.05;21.20;;;;;;;;;;5019386;28;20125;-89
2023/03/03 03:00:00;;;;;;;38.17;21.75;;;;;;;;;;5019468;28;20030;-90
2023/03/03 03:02:26;;;;;;;36.25;21.75;;;;;;;;;;5051818;28;20048;-89
2023/03/03 03:07:56;;;;;;;35.58;21.95;;;;;;;;;;5081303;28;20035;-89
2023/03/03 03:10:22;;;;;;;39.58;22.77;;;;;;;;;;5063515;28;20039;-89
2023/03/03 03:12:48;;;;;;;36.70;21.52;;;;;;;;;;5081214;28;20111;-93
2023/03/03 03:15:14;;;;;;;37.20;23.65;;;;;;;;;;5081016;28;20025;-93
2023/03/03 03:17:41;;;;;;;39.45;23.08;;;;;;;;;;5063022;28;20115;-86
2023/03/03 03:23:23;;;;;;;52.70;24.95;;;;;;;;;;5080635;28;20031;-90
2023/03/03 03:25:49;;;;;;;42.88;24.15;;;;;;;;;;5063213;28;20131;-90
2023/03/03 03:28:17;;;;;;;47.33;25.58;;;;;;;;;;5080537;28;20028;-89
2023/03/03 03:30:44;;;;;;;48.13;24.23;;;;;;;;;;5080436;28;20028;-91
2023/03/03 03:33:11;;;;;;;51.70;25.70;;;;;;;;;;5080364;28;20055;-89
2023/03/03 03:41:58;;;;;;;42.80;21.80;;;;;;;;;;5079919;28;20059;-88
2023/03/03 03:44:24;;;;;;;39.45;21.95;;;;;;;;;;5080597;28;20115;-88
2023/03/03 03:46:50;;;;;;;42.13;22.67;;;;;;;;;;5079986;28;20025;-88
2023/03/03 03:49:17;;;;;;;42.88;23.38;;;;;;;;;;5062480;28;20048;-87
2023/03/03 03:52:01;;;;;;;42.95;23.35;;;;;;;;;;5079493;28;20044;-88
2023/03/03 03:54:27;;;;;;;39.80;23.20;;;;;;;;;;5079777;28;20032;-90
2023/03/03 03:56:53;;;;;;;51.20;26.42;;;;;;;;;;5079921;28;20035;-91
2023/03/03 03:59:20;;;;;;;58.03;27.98;;;;;;;;;;5099081;28;20048;-91
2023/03/03 04:01:47;;;;;;;63.53;29.85;;;;;;;;;;5082633;28;20024;-89
2023/03/03 04:04:13;;;;;;;60.42;28.42;;;;;;;;;;5100200;28;20326;-90
2023/03/03 04:06:39;;;;;;;53.45;27.70;;;;;;;;;;5100056;28;20062;-91
2023/03/03 04:09:05;;;;;;;56.90;28.55;;;;;;;;;;5082097;28;20035;-91
2023/03/03 04:11:31;;;;;;;49.38;26.48;;;;;;;;;;5099828;28;20020;-92
2023/03/03 04:13:57;;;;;;;56.80;28.95;;;;;;;;;;5099580;28;20341;-91
2023/03/03 04:16:23;;;;;;;57.25;29.38;;;;;;;;;;5100205;28;20039;-91
2023/03/03 04:18:49;;;;;;;149.95;67.57;;;;;;;;;;5099992;28;20107;-92
2023/03/03 04:21:16;;;;;;;107.97;51.33;;;;;;;;;;5099828;28;20020;-92
2023/03/03 04:23:42;;;;;;;73.25;39.55;;;;;;;;;;5100129;28;20038;-91
2023/03/03 04:26:09;;;;;;;76.20;38.22;;;;;;;;;;5081931;28;20020;-89
2023/03/03 04:28:35;;;;;;;84.25;39.30;;;;;;;;;;5099302;28;20024;-91
2023/03/03 04:31:02;;;;;;;73.00;34.47;;;;;;;;;;5081814;28;20028;-90
2023/03/03 04:33:28;;;;;;;62.97;32.85;;;;;;;;;;5099553;28;20051;-90
2023/03/03 04:35:54;;;;;;;52.20;29.17;;;;;;;;;;5099575;28;20020;-92
2023/03/03 04:38:20;;;;;;;64.43;32.10;;;;;;;;;;5099673;28;20338;-91
2023/03/03 04:40:46;;;;;;;74.57;38.38;;;;;;;;;;5099189;28;20070;-91
2023/03/03 04:43:13;;;;;;;58.35;29.50;;;;;;;;;;5081593;28;20063;-91
2023/03/03 04:45:39;;;;;;;42.20;27.75;;;;;;;;;;5081354;28;20028;-92
2023/03/03 04:48:05;;;;;;;43.85;30.98;;;;;;;;;;5099444;28;20455;-91
2023/03/03 04:50:31;;;;;;;40.28;24.58;;;;;;;;;;5099317;28;20035;-91
2023/03/03 04:52:57;;;;;;;49.22;28.60;;;;;;;;;;5099545;28;20425;-92
2023/03/03 04:55:23;;;;;;;44.58;27.05;;;;;;;;;;5081059;28;20031;-91
2023/03/03 04:57:49;;;;;;;47.83;26.88;;;;;;;;;;5098838;28;20444;-91
2023/03/03 05:00:15;;;;;;;49.22;28.08;;;;;;;;;;5080922;28;20066;-90
2023/03/03 05:02:42;;;;;;;50.22;27.25;;;;;;;;;;5081507;28;20065;-91
2023/03/03 05:05:09;;;;;;;42.45;25.90;;;;;;;;;;5081226;28;20020;-90
2023/03/03 05:11:16;;;;;;;36.15;23.48;;;;;;;;;;5088333;28;20047;-90
2023/03/03 05:13:42;;;;;;;39.42;23.50;;;;;;;;;;5078582;28;20020;-92
2023/03/03 05:16:08;;;;;;;39.25;23.25;;;;;;;;;;5061150;28;20024;-91
2023/03/03 05:18:34;;;;;;;40.83;23.55;;;;;;;;;;5078851;28;20074;-91
2023/03/03 05:21:01;;;;;;;42.47;25.85;;;;;;;;;;5085559;28;20031;-90
2023/03/03 05:23:27;;;;;;;39.65;25.15;;;;;;;;;;5098654;28;20027;-91
2023/03/03 05:25:53;;;;;;;41.63;25.35;;;;;;;;;;5098802;28;20048;-89
2023/03/03 05:28:19;;;;;;;46.58;28.13;;;;;;;;;;5096028;28;20031;-89
2023/03/03 05:30:45;;;;;;;51.70;30.27;;;;;;;;;;5098500;28;20035;-90
2023/03/03 05:33:15;;;;;;;51.40;30.85;;;;;;;;;;5080397;28;20414;-91
2023/03/03 05:36:01;;;;;;;60.63;35.53;;;;;;;;;;5098557;28;20283;-88
2023/03/03 05:38:27;;;;;;;83.85;46.95;;;;;;;;;;5096556;28;20028;-89
2023/03/03 05:40:54;;;;;;;77.57;43.53;;;;;;;;;;5098566;28;20027;-90
2023/03/03 05:43:20;;;;;;;59.35;36.15;;;;;;;;;;5097447;28;20107;-89
2023/03/03 05:45:46;;;;;;;53.80;32.28;;;;;;;;;;5096655;28;20032;-89
2023/03/03 05:48:13;;;;;;;64.53;36.67;;;;;;;;;;5098329;28;20027;-89
2023/03/03 05:53:42;;;;;;;45.03;27.52;;;;;;;;;;5098537;28;20197;-90
2023/03/03 05:56:08;;;;;;;42.80;26.35;;;;;;;;;;5097262;28;20433;-89
2023/03/03 05:58:34;;;;;;;48.00;28.40;;;;;;;;;;5098051;28;20056;-89
2023/03/03 06:01:00;;;;;;;46.08;28.50;;;;;;;;;;5097275;28;20047;-88
2023/03/03 06:03:26;;;;;;;44.65;26.48;;;;;;;;;;5076206;28;20423;-91
2023/03/03 06:08:56;;;;;;;43.63;25.13;;;;;;;;;;5078038;28;20112;-93
2023/03/03 06:11:22;;;;;;;48.58;28.42;;;;;;;;;;5082518;28;20048;-91
2023/03/03 06:13:48;;;;;;;55.92;31.02;;;;;;;;;;5081839;28;20330;-91
2023/03/03 06:16:14;;;;;;;89.63;50.00;;;;;;;;;;5077919;28;20028;-91
2023/03/03 06:18:40;;;;;;;134.65;65.38;;;;;;;;;;5059985;28;20035;-92
2023/03/03 06:21:06;;;;;;;151.77;73.35;;;;;;;;;;5077278;28;20020;-91
2023/03/03 06:23:32;;;;;;;128.75;66.18;;;;;;;;;;5077595;28;20024;-92
2023/03/03 06:25:58;;;;;;;87.22;48.28;;;;;;;;;;5077401;28;20028;-91
2023/03/03 06:28:24;;;;;;;78.55;41.13;;;;;;;;;;5077529;28;20036;-92
2023/03/03 06:30:56;;;;;;;92.22;44.33;;;;;;;;;;5077576;28;20113;-91
2023/03/03 06:33:23;;;;;;;91.50;43.28;;;;;;;;;;5077343;28;20020;-93
2023/03/03 06:35:49;;;;;;;72.57;37.05;;;;;;;;;;5059978;28;20031;-92
2023/03/03 06:38:16;;;;;;;62.08;32.53;;;;;;;;;;5077419;28;20028;-93
2023/03/03 06:40:42;;;;;;;42.75;25.13;;;;;;;;;;5077493;28;20028;-93
2023/03/03 06:43:08;;;;;;;45.05;26.27;;;;;;;;;;5059096;28;20025;-92
2023/03/03 06:45:34;;;;;;;47.15;29.08;;;;;;;;;;5077265;28;20020;-92
2023/03/03 06:48:01;;;;;;;57.55;31.13;;;;;;;;;;5077330;28;20027;-92
2023/03/03 06:50:27;;;;;;;55.85;32.22;;;;;;;;;;5077077;28;20120;-91
2023/03/03 06:53:12;;;;;;;47.13;29.15;;;;;;;;;;5058964;28;20434;-91
2023/03/03 06:55:39;;;;;;;50.35;29.55;;;;;;;;;;5059605;28;20039;-91
2023/03/03 06:58:11;;;;;;;52.08;29.73;;;;;;;;;;5077109;28;20048;-91
2023/03/03 07:00:37;;;;;;;77.20;42.92;;;;;;;;;;5059079;28;20119;-90
2023/03/03 07:03:12;;;;;;;103.55;52.67;;;;;;;;;;5077162;28;20021;-92
2023/03/03 07:05:39;;;;;;;99.03;53.38;;;;;;;;;;5059132;28;20099;-92
2023/03/03 07:08:16;;;;;;;73.07;43.70;;;;;;;;;;5059050;28;20032;-91
2023/03/03 07:10:42;;;;;;;52.10;30.55;;;;;;;;;;5077333;28;20035;-91
2023/03/03 07:13:14;;;;;;;46.13;27.70;;;;;;;;;;5077952;28;20025;-91
2023/03/03 07:15:40;;;;;;;43.85;26.90;;;;;;;;;;5063117;28;20056;-92
2023/03/03 07:18:20;;;;;;;48.40;27.48;;;;;;;;;;5063229;28;20032;-92
2023/03/03 07:21:25;;;;;;;44.75;27.08;;;;;;;;;;5080647;28;20032;-91
2023/03/03 07:23:52;;;;;;;41.58;26.00;;;;;;;;;;4980342;28;20425;-91
2023/03/03 07:26:35;;;;;;;53.45;30.23;;;;;;;;;;4979826;28;20445;-91
2023/03/03 07:29:32;;;;;;;43.80;26.65;;;;;;;;;;4979835;28;20042;-91
2023/03/03 07:31:59;;;;;;;45.83;27.50;;;;;;;;;;4980043;28;20329;-92
2023/03/03 07:34:31;;;;;;;41.55;26.05;;;;;;;;;;4980109;28;20039;-90
2023/03/03 07:37:09;;;;;;;44.38;27.20;;;;;;;;;;4979858;28;20039;-89
2023/03/03 07:39:39;;;;;;;41.85;25.65;;;;;;;;;;4979921;28;20039;-91
2023/03/03 07:42:28;;;;;;;42.88;25.58;;;;;;;;;;4979821;28;20416;-90
2023/03/03 07:44:57;;;;;;;43.08;26.35;;;;;;;;;;4979781;28;20097;-88
2023/03/03 07:47:23;;;;;;;45.22;27.02;;;;;;;;;;4979786;28;20041;-92
2023/03/03 07:49:49;;;;;;;42.53;26.58;;;;;;;;;;4979853;28;20042;-92
2023/03/03 07:52:18;;;;;;;44.17;27.00;;;;;;;;;;4979681;28;20038;-91
2023/03/03 07:54:45;;;;;;;44.08;27.67;;;;;;;;;;4990753;28;20042;-90
2023/03/03 07:57:12;;;;;;;50.65;30.48;;;;;;;;;;4994529;28;20155;-91
2023/03/03 07:59:41;;;;;;;43.92;27.10;;;;;;;;;;4995796;28;20039;-91
2023/03/03 08:02:18;;;;;;;46.05;27.83;;;;;;;;;;4998945;28;20038;-91
2023/03/03 08:04:51;;;;;;;58.00;33.63;;;;;;;;;;4999193;28;20030;-92
2023/03/03 08:07:18;;;;;;;43.40;27.20;;;;;;;;;;5000364;28;20018;-91
2023/03/03 08:09:46;;;;;;;47.50;29.73;;;;;;;;;;5018591;28;20038;-91
2023/03/03 08:12:23;;;;;;;68.50;40.03;;;;;;;;;;5018581;28;20034;-91
2023/03/03 08:14:50;;;;;;;79.18;46.10;;;;;;;;;;5001915;28;20137;-92
2023/03/03 08:17:20;;;;;;;57.03;35.05;;;;;;;;;;5018416;28;20062;-92
2023/03/03 08:19:47;;;;;;;46.05;28.27;;;;;;;;;;5018402;28;20026;-91
2023/03/03 08:22:34;;;;;;;44.58;27.17;;;;;;;;;;5049937;28;20111;-91
2023/03/03 08:25:00;;;;;;;48.83;28.75;;;;;;;;;;5078969;28;20036;-92
2023/03/03 08:27:27;;;;;;;48.88;29.42;;;;;;;;;;5055137;28;20021;-91
2023/03/03 08:29:53;;;;;;;51.22;31.10;;;;;;;;;;5078457;28;20048;-90
2023/03/03 08:32:19;;;;;;;49.92;28.23;;;;;;;;;;5079625;28;20028;-91
2023/03/03 08:34:45;;;;;;;43.50;27.85;;;;;;;;;;5079144;28;20027;-92
2023/03/03 08:37:11;;;;;;;46.20;28.27;;;;;;;;;;5079360;28;20021;-91
2023/03/03 08:39:37;;;;;;;49.15;28.20;;;;;;;;;;5078738;28;20070;-91
2023/03/03 08:42:03;;;;;;;44.50;29.48;;;;;;;;;;5079140;28;20029;-90
2023/03/03 08:44:29;;;;;;;46.70;28.88;;;;;;;;;;5078949;28;20347;-91
2023/03/03 08:46:55;;;;;;;44.67;28.63;;;;;;;;;;5061601;28;20094;-91
2023/03/03 08:49:21;;;;;;;48.88;29.33;;;;;;;;;;5078964;28;20020;-91
2023/03/03 08:51:47;;;;;;;44.72;28.73;;;;;;;;;;5078834;28;20115;-91
2023/03/03 08:54:13;;;;;;;48.00;29.08;;;;;;;;;;5078894;28;20021;-91
2023/03/03 08:56:39;;;;;;;47.20;28.52;;;;;;;;;;5060780;28;20036;-91
2023/03/03 08:59:05;;;;;;;48.20;27.40;;;;;;;;;;5070793;28;20048;-90
2023/03/03 09:01:32;;;;;;;44.20;27.88;;;;;;;;;;5078652;28;20115;-90
2023/03/03 09:03:58;;;;;;;54.53;34.20;;;;;;;;;;5078970;28;20059;-90
2023/03/03 09:06:24;;;;;;;46.80;27.67;;;;;;;;;;5078689;28;20021;-90
2023/03/03 09:08:50;;;;;;;54.53;29.70;;;;;;;;;;5078785;28;20020;-91
2023/03/03 09:11:26;;;;;;;49.53;28.60;;;;;;;;;;5078503;28;20021;-90
2023/03/03 09:13:55;;;;;;;47.67;29.27;;;;;;;;;;5060837;28;20028;-90
2023/03/03 09:16:21;;;;;;;56.28;32.15;;;;;;;;;;5078606;28;20028;-91
2023/03/03 09:18:47;;;;;;;46.13;27.90;;;;;;;;;;5078541;28;20086;-92
2023/03/03 09:21:26;;;;;;;45.38;28.73;;;;;;;;;;5078466;28;20028;-91
2023/03/03 09:23:56;;;;;;;43.58;27.33;;;;;;;;;;5078459;28;20187;-91
2023/03/03 09:26:26;;;;;;;46.95;28.42;;;;;;;;;;5060822;28;20028;-91
2023/03/03 09:28:54;;;;;;;47.92;28.80;;;;;;;;;;5060333;28;20051;-91
2023/03/03 09:31:40;;;;;;;49.90;28.05;;;;;;;;;;5078285;28;20095;-90
2023/03/03 09:34:16;;;;;;;47.42;26.88;;;;;;;;;;5060524;28;20039;-91
2023/03/03 09:36:42;;;;;;;48.63;28.80;;;;;;;;;;5059756;28;20033;-90
2023/03/03 09:39:18;;;;;;;50.33;29.27;;;;;;;;;;5060481;28;20419;-90
2023/03/03 09:41:44;;;;;;;49.03;30.42;;;;;;;;;;5078034;28;20462;-91
2023/03/03 09:44:11;;;;;;;45.83;28.67;;;;;;;;;;5077931;28;20052;-91
2023/03/03 09:46:37;;;;;;;52.58;29.98;;;;;;;;;;5077860;28;20067;-91
2023/03/03 09:49:21;;;;;;;51.70;30.13;;;;;;;;;;5059944;28;20040;-91
2023/03/03 09:52:00;;;;;;;71.38;32.33;;;;;;;;;;5077942;28;20051;-92
2023/03/03 09:54:26;;;;;;;51.25;31.13;;;;;;;;;;5060332;28;20418;-90
2023/03/03 09:56:58;;;;;;;53.33;30.83;;;;;;;;;;5075751;28;20029;-91
2023/03/03 09:59:34;;;;;;;51.22;31.05;;;;;;;;;;5072200;28;20057;-92
2023/03/03 10:02:33;;;;;;;51.83;30.42;;;;;;;;;;5077733;28;20350;-92
2023/03/03 10:05:17;;;;;;;49.63;30.67;;;;;;;;;;4977403;28;20041;-91
2023/03/03 10:08:02;;;;;;;54.88;33.63;;;;;;;;;;4977534;28;20042;-91
2023/03/03 10:10:37;;;;;;;49.17;29.58;;;;;;;;;;4977397;28;20029;-91
2023/03/03 10:13:03;;;;;;;53.60;31.20;;;;;;;;;;4976883;28;20528;-91
2023/03/03 10:15:39;;;;;;;49.60;31.13;;;;;;;;;;4977286;28;20078;-91
2023/03/03 10:18:14;;;;;;;53.15;33.63;;;;;;;;;;4977056;28;20126;-91
2023/03/03 10:20:58;;;;;;;55.22;34.75;;;;;;;;;;4977276;28;20421;-90
2023/03/03 10:23:45;;;;;;;56.58;35.22;;;;;;;;;;4977028;28;20035;-91
2023/03/03 10:26:21;;;;;;;60.88;35.83;;;;;;;;;;4957659;29;20433;-92
2023/03/03 10:28:47;;;;;;;58.47;35.08;;;;;;;;;;4957822;29;20043;-92
2023/03/03 10:31:15;;;;;;;57.50;34.30;;;;;;;;;;4957738;29;20043;-91
2023/03/03 10:33:59;;;;;;;60.33;37.22;;;;;;;;;;4957950;29;20054;-91
2023/03/03 10:36:28;;;;;;;65.40;34.47;;;;;;;;;;4957841;28;20456;-92
2023/03/03 10:39:03;;;;;;;60.38;36.35;;;;;;;;;;4957744;29;20133;-92
2023/03/03 10:41:31;;;;;;;64.63;37.38;;;;;;;;;;4990035;28;20041;-93
2023/03/03 10:44:03;;;;;;;59.55;36.30;;;;;;;;;;4996518;28;20045;-91
2023/03/03 10:46:48;;;;;;;60.40;35.40;;;;;;;;;;4996149;28;20034;-93
2023/03/03 10:49:17;;;;;;;61.85;35.53;;;;;;;;;;4999140;28;20033;-92
2023/03/03 10:51:55;;;;;;;60.67;36.33;;;;;;;;;;5000395;28;20316;-91
2023/03/03 10:54:21;;;;;;;71.63;41.45;;;;;;;;;;5000218;28;20030;-91
2023/03/03 10:57:01;;;;;;;61.63;36.40;;;;;;;;;;5000133;28;20097;-90
2023/03/03 10:59:27;;;;;;;56.65;35.38;;;;;;;;;;4999992;28;20074;-91
2023/03/03 11:01:59;;;;;;;58.17;35.63;;;;;;;;;;4999266;28;20039;-92
2023/03/03 11:04:32;;;;;;;63.00;39.27;;;;;;;;;;5079708;28;20052;-90
2023/03/03 11:07:16;;;;;;;70.82;43.70;;;;;;;;;;5080940;28;20269;-91
2023/03/03 11:09:53;;;;;;;69.90;41.75;;;;;;;;;;5063344;28;20127;-92
2023/03/03 11:12:24;;;;;;;75.13;47.17;;;;;;;;;;5080945;28;20025;-91
2023/03/03 11:14:57;;;;;;;69.60;42.60;;;;;;;;;;5081058;28;20028;-90
2023/03/03 11:17:55;;;;;;;67.00;40.13;;;;;;;;;;5080699;28;20040;-92
2023/03/03 11:20:36;;;;;;;66.18;40.42;;;;;;;;;;4980314;28;20030;-90
2023/03/03 11:23:21;;;;;;;69.25;39.85;;;;;;;;;;4999882;28;20046;-92
2023/03/03 11:25:54;;;;;;;71.80;43.15;;;;;;;;;;4999478;28;20316;-89
2023/03/03 11:28:21;;;;;;;65.13;41.58;;;;;;;;;;4999690;28;20034;-90
2023/03/03 11:31:05;;;;;;;72.03;43.60;;;;;;;;;;4999803;28;20042;-91
2023/03/03 11:33:38;;;;;;;65.72;38.97;;;;;;;;;;4980233;28;20034;-90
2023/03/03 11:36:27;;;;;;;65.70;39.10;;;;;;;;;;4979994;28;20047;-90
2023/03/03 11:38:54;;;;;;;64.63;37.50;;;;;;;;;;4979850;28;20050;-90
2023/03/03 11:41:30;;;;;;;61.92;34.95;;;;;;;;;;4979941;28;20034;-92
2023/03/03 11:44:00;;;;;;;59.78;35.35;;;;;;;;;;4999437;28;20030;-90
2023/03/03 11:46:35;;;;;;;56.70;32.40;;;;;;;;;;4999243;28;20336;-90
2023/03/03 11:49:11;;;;;;;62.58;33.33;;;;;;;;;;4998835;28;20030;-90
2023/03/03 11:51:37;;;;;;;51.00;31.63;;;;;;;;;;4999099;28;20026;-90
2023/03/03 11:54:23;;;;;;;60.38;34.78;;;;;;;;;;4999252;28;20037;-91
2023/03/03 11:56:50;;;;;;;58.88;32.58;;;;;;;;;;5067840;28;20029;-90
2023/03/03 11:59:32;;;;;;;61.10;33.95;;;;;;;;;;5055297;28;20095;-91
2023/03/03 12:02:13;;;;;;;44.20;27.55;;;;;;;;;;5062399;28;20039;-89
2023/03/03 12:04:39;;;;;;;53.55;32.15;;;;;;;;;;5079961;28;20353;-89
2023/03/03 12:07:05;;;;;;;56.10;34.20;;;;;;;;;;5079948;28;20410;-90
2023/03/03 12:09:31;;;;;;;59.70;35.72;;;;;;;;;;5061458;28;20100;-90
2023/03/03 12:12:12;;;;;;;54.95;33.25;;;;;;;;;;5080056;28;20039;-91
2023/03/03 12:14:53;;;;;;;48.50;31.60;;;;;;;;;;5061613;28;20033;-90
2023/03/03 12:17:25;;;;;;;47.53;28.95;;;;;;;;;;5079621;28;20028;-90
2023/03/03 12:19:51;;;;;;;;;;;;;;;;;;5062009;28;20074;-89
2023/03/03 12:22:33;;;;;;;41.05;25.20;;;;;;;;;;5079568;28;19908;-90
2023/03/03 12:25:17;;;;;;;43.45;26.05;;;;;;;;;;5079581;28;20054;-90
2023/03/03 12:27:46;;;;;;;62.30;35.25;;;;;;;;;;5079458;28;20031;-90
2023/03/03 12:30:18;;;;;;;78.90;44.22;;;;;;;;;;5079749;28;20037;-91
2023/03/03 12:32:44;;;;;;;;;;;;;;;;;;5079830;28;20033;-90
2023/03/03 12:35:30;;;;;;;81.50;44.72;;;;;;;;;;5079293;28;20401;-90
2023/03/03 12:38:02;;;;;;;86.60;47.10;;;;;;;;;;5079120;28;20033;-91
2023/03/03 12:40:31;;;;;;;84.47;48.28;;;;;;;;;;5079182;28;20112;-89
2023/03/03 12:43:00;;;;;;;100.25;52.33;;;;;;;;;;5060885;28;20343;-89
2023/03/03 12:45:30;;;;;;;92.00;50.72;;;;;;;;;;5061707;28;20021;-89
2023/03/03 12:48:00;;;;;;;88.43;47.80;;;;;;;;;;5079086;28;20032;-89
2023/03/03 12:50:32;;;;;;;86.30;49.53;;;;;;;;;;5079072;28;20307;-90
2023/03/03 12:53:05;;;;;;;81.57;47.97;;;;;;;;;;5079116;28;20039;-90
2023/03/03 12:55:43;;;;;;;81.90;47.13;;;;;;;;;;5061417;28;20031;-90
2023/03/03 12:58:24;;;;;;;89.13;50.17;;;;;;;;;;5061039;28;20445;-90
2023/03/03 13:01:04;;;;;;;87.83;48.20;;;;;;;;;;5079089;28;20032;-90
2023/03/03 13:03:33;;;;;;;85.43;47.42;;;;;;;;;;5078937;28;20115;-89
2023/03/03 13:06:02;;;;;;;77.82;46.20;;;;;;;;;;5061255;28;20025;-89
2023/03/03 13:08:43;;;;;;;90.38;47.75;;;;;;;;;;5060874;28;20037;-89
2023/03/03 13:11:09;;;;;;;77.83;44.73;;;;;;;;;;5078753;28;20052;-90
2023/03/03 13:13:44;;;;;;;71.07;42.80;;;;;;;;;;5060812;28;20265;-89
2023/03/03 13:16:12;;;;;;;85.30;48.13;;;;;;;;;;5061126;28;20021;-90
2023/03/03 13:18:57;;;;;;;78.90;46.40;;;;;;;;;;5078592;28;20025;-90
2023/03/03 13:27:35;;;;;;;106.45;64.82;;;;;;;;;;5077874;28;20107;-90
2023/03/03 13:30:03;;;;;;;85.63;50.38;;;;;;;;;;5078317;28;20032;-91
2023/03/03 13:33:05;;;;;;;96.05;51.40;;;;;;;;;;5078383;28;20033;-90
2023/03/03 13:35:37;;;;;;;84.20;50.25;;;;;;;;;;4977707;28;20480;-90
2023/03/03 13:38:03;;;;;;;;;;;;;;;;;;4977865;28;20138;-90
2023/03/03 13:40:32;;;;;;;83.55;49.75;;;;;;;;;;4977628;28;20062;-89
2023/03/03 13:42:58;;;;;;;78.65;46.63;;;;;;;;;;4984000;28;20073;-89
2023/03/03 13:45:35;;;;;;;82.18;47.85;;;;;;;;;;4996917;28;20488;-90
2023/03/03 13:48:21;;;;;;;97.07;52.40;;;;;;;;;;4996963;28;20030;-90
2023/03/03 13:50:47;;;;;;;101.97;53.75;;;;;;;;;;4996881;28;20435;-90
2023/03/03 13:53:32;;;;;;;93.70;53.15;;;;;;;;;;4996884;28;20026;-89
2023/03/03 13:56:04;;;;;;;92.60;52.35;;;;;;;;;;4997171;28;20450;-90
2023/03/03 13:58:33;;;;;;;;;;;;;;;;;;5008752;28;20080;-84
2023/03/03 14:01:03;;;;;;;97.00;54.45;;;;;;;;;;5016461;28;19956;-92
2023/03/03 14:03:45;;;;;;;95.93;56.15;;;;;;;;;;5016337;28;20026;-91
2023/03/03 14:06:27;;;;;;;107.03;55.30;;;;;;;;;;5010315;28;20415;-90
2023/03/03 14:09:11;;;;;;;97.53;53.35;;;;;;;;;;5027059;28;20100;-91
2023/03/03 14:11:46;;;;;;;108.68;55.13;;;;;;;;;;5057594;28;20099;-89
2023/03/03 14:14:16;;;;;;;103.43;57.92;;;;;;;;;;5057637;28;20560;-89
2023/03/03 14:17:00;;;;;;;98.65;55.65;;;;;;;;;;5057807;28;20135;-88
2023/03/03 14:19:45;;;;;;;93.32;51.75;;;;;;;;;;5057410;28;20053;-89
2023/03/03 14:22:14;;;;;;;101.25;53.17;;;;;;;;;;5057142;28;20020;-90
2023/03/03 14:24:59;;;;;;;106.13;55.38;;;;;;;;;;5039658;28;20028;-90
2023/03/03 14:27:26;;;;;;;102.35;55.58;;;;;;;;;;5057328;28;20025;-89
2023/03/03 14:29:52;;;;;;;104.55;55.28;;;;;;;;;;5039951;28;20032;-90
2023/03/03 14:32:26;;;;;;;99.25;55.13;;;;;;;;;;5057057;28;20049;-89
2023/03/03 14:34:57;;;;;;;100.25;52.28;;;;;;;;;;5039811;28;20072;-89
2023/03/03 14:37:23;;;;;;;90.70;51.65;;;;;;;;;;5039872;28;20036;-90
2023/03/03 14:40:09;;;;;;;100.47;52.40;;;;;;;;;;5057217;28;20151;-88
2023/03/03 14:42:47;;;;;;;93.72;51.85;;;;;;;;;;4976930;28;20039;-90
2023/03/03 14:45:36;;;;;;;111.32;55.25;;;;;;;;;;4976819;28;20042;-90
2023/03/03 14:48:11;;;;;;;98.07;51.60;;;;;;;;;;4972142;28;20166;-89
2023/03/03 14:50:41;;;;;;;89.65;48.08;;;;;;;;;;4976980;28;20043;-89
2023/03/03 14:53:15;;;;;;;105.28;51.10;;;;;;;;;;4976911;28;20039;-89
2023/03/03 14:55:43;;;;;;;97.35;49.38;;;;;;;;;;4977004;28;20073;-90
2023/03/03 14:58:27;;;;;;;102.00;51.97;;;;;;;;;;4985679;28;20065;-89
2023/03/03 15:01:12;;;;;;;103.85;53.35;;;;;;;;;;4996391;28;20088;-91
2023/03/03 15:03:43;;;;;;;101.43;52.05;;;;;;;;;;4996221;28;20037;-89
2023/03/03 15:06:15;;;;;;;95.63;49.25;;;;;;;;;;4996456;28;20397;-90
2023/03/03 15:08:41;;;;;;;96.70;51.33;;;;;;;;;;4996321;28;20429;-88
2023/03/03 15:11:20;;;;;;;106.95;51.85;;;;;;;;;;4996177;28;20033;-89
2023/03/03 15:13:46;;;;;;;106.57;54.47;;;;;;;;;;4996029;28;20038;-89
2023/03/03 15:16:22;;;;;;;110.20;53.78;;;;;;;;;;4996044;28;20034;-90
2023/03/03 15:19:00;;;;;;;106.28;52.00;;;;;;;;;;5008095;28;20036;-88
2023/03/03 15:21:33;;;;;;;102.28;50.75;;;;;;;;;;5076719;28;20422;-89
2023/03/03 15:24:06;;;;;;;105.57;50.70;;;;;;;;;;5076572;28;20032;-89
2023/03/03 15:26:32;;;;;;;119.03;54.38;;;;;;;;;;5059276;28;20415;-88